Terminal Aerodrome Forecast
Issued by NWS

Home | Current Version | Previous Version | Text Only | Print | Product List | Glossary On
Versions: 1 2 3 4 5 6 7 8 9 10 11 12 13 14 15 16 17 18 19 20 21 22 23 24
000
FTUS44 KOUN 250520
TAFPNC
TAF
KPNC 250520Z 2506/2606 16007KT P6SM SCT050 BKN080
      TEMPO 2509/2512 2SM -TSRA BR OVC015CB
     FM251200 01002KT P6SM OVC010
      TEMPO 2512/2516 4SM -RA BR
     FM251800 01008KT P6SM OVC050
     FM260000 36006KT P6SM OVC250=

USA.gov is the U.S. government's official web portal to all federal, state and local government web resources and services.